sensor_id;sensor_type;location;lat;lon;timestamp;pressure;altitude;pressure_sealevel;temperature;humidity
76046;BME280;64741;41.730;44.788;2023-05-16T00:02:01;994;;;23.6;40.4
76046;BME280;64741;41.730;44.788;2023-05-16T00:07:05;994;;;23.6;40.1
76046;BME280;64741;41.730;44.788;2023-05-16T00:12:03;994;;;23.6;40.4
76046;BME280;64741;41.730;44.788;2023-05-16T00:17:03;994;;;23.6;39.8
76046;BME280;64741;41.730;44.788;2023-05-16T00:21:49;994;;;23.5;39.7
76046;BME280;64741;41.730;44.788;2023-05-16T00:27:07;994;;;23.5;39.7
76046;BME280;64741;41.730;44.788;2023-05-16T00:32:03;994;;;23.5;39.9
76046;BME280;64741;41.730;44.788;2023-05-16T00:36:59;994.1;;;23.5;39.9
76046;BME280;64741;41.730;44.788;2023-05-16T00:42:01;994.1;;;23.5;39.8
76046;BME280;64741;41.730;44.788;2023-05-16T00:46:59;994.1;;;23.5;40
76046;BME280;64741;41.730;44.788;2023-05-16T00:52:01;994.1;;;23.5;39.5
76046;BME280;64741;41.730;44.788;2023-05-16T00:57:07;994.1;;;23.5;39.4
76046;BME280;64741;41.730;44.788;2023-05-16T01:02:05;994.1;;;23.5;39.4
76046;BME280;64741;41.730;44.788;2023-05-16T01:06:45;994.1;;;23.5;39.4
76046;BME280;64741;41.730;44.788;2023-05-16T01:12:05;994.2;;;23.5;39.6
76046;BME280;64741;41.730;44.788;2023-05-16T01:17:04;994.2;;;23.5;39.5
76046;BME280;64741;41.730;44.788;2023-05-16T01:22:05;994.2;;;23.5;39.4
76046;BME280;64741;41.730;44.788;2023-05-16T01:27:03;994.2;;;23.5;39.2
76046;BME280;64741;41.730;44.788;2023-05-16T01:31:57;994.2;;;23.5;39.2
76046;BME280;64741;41.730;44.788;2023-05-16T01:37:08;994.3;;;23.5;39.2
76046;BME280;64741;41.730;44.788;2023-05-16T01:41:58;994.3;;;23.5;39
76046;BME280;64741;41.730;44.788;2023-05-16T01:47:02;994.3;;;23.5;39.1
76046;BME280;64741;41.730;44.788;2023-05-16T01:52:07;994.3;;;23.5;39.2
76046;BME280;64741;41.730;44.788;2023-05-16T01:57:05;994.4;;;23.5;39.1
76046;BME280;64741;41.730;44.788;2023-05-16T02:02:05;994.5;;;23.5;39.3
76046;BME280;64741;41.730;44.788;2023-05-16T02:06:19;994.6;;;23.5;39.3
76046;BME280;64741;41.730;44.788;2023-05-16T02:12:03;994.6;;;23.4;39.1
76046;BME280;64741;41.730;44.788;2023-05-16T02:17:01;994.7;;;23.4;38.9
76046;BME280;64741;41.730;44.788;2023-05-16T02:22:01;994.8;;;23.4;38.8
76046;BME280;64741;41.730;44.788;2023-05-16T02:27:07;994.8;;;23.4;38.8
76046;BME280;64741;41.730;44.788;2023-05-16T02:32:01;994.8;;;23.4;38.7
76046;BME280;64741;41.730;44.788;2023-05-16T02:37:07;994.9;;;23.4;38.7
76046;BME280;64741;41.730;44.788;2023-05-16T02:42:03;994.9;;;23.4;38.6
76046;BME280;64741;41.730;44.788;2023-05-16T02:47:01;994.9;;;23.4;38.6
76046;BME280;64741;41.730;44.788;2023-05-16T02:52:03;995;;;23.4;38.7
76046;BME280;64741;41.730;44.788;2023-05-16T02:56:59;995;;;23.4;38.7
76046;BME280;64741;41.730;44.788;2023-05-16T03:02:03;995;;;23.4;38.6
76046;BME280;64741;41.730;44.788;2023-05-16T03:07:01;994.9;;;23.4;38.7
76046;BME280;64741;41.730;44.788;2023-05-16T03:12:05;995;;;23.4;38.6
76046;BME280;64741;41.730;44.788;2023-05-16T03:17:01;995;;;23.4;38.8
76046;BME280;64741;41.730;44.788;2023-05-16T03:22:01;994.9;;;23.4;38.8
76046;BME280;64741;41.730;44.788;2023-05-16T03:27:07;995;;;23.4;38.7
76046;BME280;64741;41.730;44.788;2023-05-16T03:32:07;995.1;;;23.4;38.9
76046;BME280;64741;41.730;44.788;2023-05-16T03:37:03;995.1;;;23.4;38.7
76046;BME280;64741;41.730;44.788;2023-05-16T03:41:59;995.1;;;23.4;38.7
76046;BME280;64741;41.730;44.788;2023-05-16T03:47:07;995;;;23.4;38.7
76046;BME280;64741;41.730;44.788;2023-05-16T03:51:59;995;;;23.4;38.8
76046;BME280;64741;41.730;44.788;2023-05-16T03:57:01;995;;;23.4;38.8
76046;BME280;64741;41.730;44.788;2023-05-16T04:01:57;994.9;;;23.4;38.8
76046;BME280;64741;41.730;44.788;2023-05-16T04:07:07;995;;;23.4;38.8
76046;BME280;64741;41.730;44.788;2023-05-16T04:12:03;995;;;23.4;38.9
76046;BME280;64741;41.730;44.788;2023-05-16T04:17:01;994.8;;;23.4;38.8
76046;BME280;64741;41.730;44.788;2023-05-16T04:22:07;994.8;;;23.4;39
76046;BME280;64741;41.730;44.788;2023-05-16T04:27:03;994.8;;;23.4;38.9
76046;BME280;64741;41.730;44.788;2023-05-16T04:32:03;994.8;;;23.4;38.9
76046;BME280;64741;41.730;44.788;2023-05-16T04:36:59;994.8;;;23.4;39
76046;BME280;64741;41.730;44.788;2023-05-16T04:41:59;994.8;;;23.4;38.8
76046;BME280;64741;41.730;44.788;2023-05-16T04:47:03;994.7;;;23.4;38.6
76046;BME280;64741;41.730;44.788;2023-05-16T04:51:59;994.7;;;23.4;38.6
76046;BME280;64741;41.730;44.788;2023-05-16T04:57:07;994.7;;;23.4;38.5
76046;BME280;64741;41.730;44.788;2023-05-16T05:02:03;994.7;;;23.4;38.4
76046;BME280;64741;41.730;44.788;2023-05-16T05:07:03;994.6;;;23.4;38.6
76046;BME280;64741;41.730;44.788;2023-05-16T05:11:45;994.6;;;23.4;38.6
76046;BME280;64741;41.730;44.788;2023-05-16T05:17:01;994.6;;;23.4;38.4
76046;BME280;64741;41.730;44.788;2023-05-16T05:21:59;994.6;;;23.3;38.4
76046;BME280;64741;41.730;44.788;2023-05-16T05:26:59;994.6;;;23.4;38.4
76046;BME280;64741;41.730;44.788;2023-05-16T05:32:05;994.6;;;23.4;38.4
76046;BME280;64741;41.730;44.788;2023-05-16T05:37:01;994.4;;;23.4;38.4
76046;BME280;64741;41.730;44.788;2023-05-16T05:42:05;994.4;;;23.4;38.4
76046;BME280;64741;41.730;44.788;2023-05-16T05:47:01;994.3;;;23.4;38.4
76046;BME280;64741;41.730;44.788;2023-05-16T05:52:03;994.3;;;23.4;38.4
76046;BME280;64741;41.730;44.788;2023-05-16T05:57:05;994.4;;;23.4;38.4
76046;BME280;64741;41.730;44.788;2023-05-16T06:02:01;994.4;;;23.4;38.6
76046;BME280;64741;41.730;44.788;2023-05-16T06:07:05;994.3;;;23.4;38.4
76046;BME280;64741;41.730;44.788;2023-05-16T06:12:03;994.3;;;23.4;38.5
76046;BME280;64741;41.730;44.788;2023-05-16T06:17:09;994.2;;;23.4;38.5
76046;BME280;64741;41.730;44.788;2023-05-16T06:22:03;994.2;;;23.4;38.5
76046;BME280;64741;41.730;44.788;2023-05-16T06:26:49;994.1;;;23.4;38.5
76046;BME280;64741;41.730;44.788;2023-05-16T06:32:07;994.1;;;23.4;38.5
76046;BME280;64741;41.730;44.788;2023-05-16T06:37:07;994;;;23.4;38.6
76046;BME280;64741;41.730;44.788;2023-05-16T06:42:01;993.9;;;23.4;38.6
76046;BME280;64741;41.730;44.788;2023-05-16T06:46:59;993.9;;;23.4;38.6
76046;BME280;64741;41.730;44.788;2023-05-16T06:51:53;993.8;;;23.4;38.8
76046;BME280;64741;41.730;44.788;2023-05-16T06:57:03;993.8;;;23.4;39
76046;BME280;64741;41.730;44.788;2023-05-16T07:02:01;993.8;;;23.4;39.1
76046;BME280;64741;41.730;44.788;2023-05-16T07:06:59;993.7;;;23.5;39.3
76046;BME280;64741;41.730;44.788;2023-05-16T07:11:39;993.7;;;23.5;39.4
76046;BME280;64741;41.730;44.788;2023-05-16T07:17:03;993.6;;;23.5;39.5
76046;BME280;64741;41.730;44.788;2023-05-16T07:22:01;993.6;;;23.5;39.6
76046;BME280;64741;41.730;44.788;2023-05-16T07:27:07;993.5;;;23.5;39.7
76046;BME280;64741;41.730;44.788;2023-05-16T07:31:59;993.5;;;23.5;39.7
76046;BME280;64741;41.730;44.788;2023-05-16T07:37:01;993.4;;;23.6;39.9
76046;BME280;64741;41.730;44.788;2023-05-16T07:41:57;993.4;;;23.6;40.3
76046;BME280;64741;41.730;44.788;2023-05-16T07:46:57;993.3;;;23.6;40.4
76046;BME280;64741;41.730;44.788;2023-05-16T07:52:01;993.2;;;23.6;40.4
76046;BME280;64741;41.730;44.788;2023-05-16T07:56:57;993.1;;;23.6;40.3
76046;BME280;64741;41.730;44.788;2023-05-16T08:02:07;993.1;;;23.7;40.3
76046;BME280;64741;41.730;44.788;2023-05-16T08:07:01;993.1;;;23.6;40.2
76046;BME280;64741;41.730;44.788;2023-05-16T08:12:08;993;;;23.6;40
76046;BME280;64741;41.730;44.788;2023-05-16T08:17:01;992.9;;;23.6;39.9
76046;BME280;64741;41.730;44.788;2023-05-16T08:22:07;992.9;;;23.7;39.7
76046;BME280;64741;41.730;44.788;2023-05-16T08:27:07;992.8;;;23.7;40
76046;BME280;64741;41.730;44.788;2023-05-16T08:31:59;992.8;;;23.7;41.3
76046;BME280;64741;41.730;44.788;2023-05-16T08:36:47;992.7;;;23.7;42.8
76046;BME280;64741;41.730;44.788;2023-05-16T08:42:04;992.6;;;23.7;43.9
76046;BME280;64741;41.730;44.788;2023-05-16T08:47:06;992.6;;;23.8;44.9
76046;BME280;64741;41.730;44.788;2023-05-16T08:52:01;992.5;;;23.8;45.7
76046;BME280;64741;41.730;44.788;2023-05-16T08:57:03;992.4;;;23.8;46.3
76046;BME280;64741;41.730;44.788;2023-05-16T09:02:10;992.4;;;23.8;47.1
76046;BME280;64741;41.730;44.788;2023-05-16T09:07:09;992.2;;;23.9;47.4
76046;BME280;64741;41.730;44.788;2023-05-16T09:12:06;992.2;;;23.9;47.8
76046;BME280;64741;41.730;44.788;2023-05-16T09:17:06;992.1;;;23.9;47.8
76046;BME280;64741;41.730;44.788;2023-05-16T09:22:05;992;;;23.9;47.3
76046;BME280;64741;41.730;44.788;2023-05-16T09:27:07;992;;;23.9;46.7
76046;BME280;64741;41.730;44.788;2023-05-16T09:32:09;992;;;23.9;46.6
76046;BME280;64741;41.730;44.788;2023-05-16T09:37:08;992;;;23.9;46.7
76046;BME280;64741;41.730;44.788;2023-05-16T09:42:09;991.9;;;23.9;46.5
76046;BME280;64741;41.730;44.788;2023-05-16T09:47:05;991.8;;;23.9;46.4
76046;BME280;64741;41.730;44.788;2023-05-16T09:52:02;991.8;;;23.9;45.9
76046;BME280;64741;41.730;44.788;2023-05-16T09:57:07;991.8;;;23.9;44.8
76046;BME280;64741;41.730;44.788;2023-05-16T10:02:06;991.8;;;23.9;44.6
76046;BME280;64741;41.730;44.788;2023-05-16T10:07:04;991.8;;;23.9;44.1
76046;BME280;64741;41.730;44.788;2023-05-16T10:12:02;991.8;;;23.9;44.3
76046;BME280;64741;41.730;44.788;2023-05-16T10:17:10;991.7;;;23.9;44
76046;BME280;64741;41.730;44.788;2023-05-16T10:22:06;991.6;;;23.9;43.9
76046;BME280;64741;41.730;44.788;2023-05-16T10:27:03;991.5;;;24;43.5
76046;BME280;64741;41.730;44.788;2023-05-16T10:32:09;991.5;;;24;43.3
76046;BME280;64741;41.730;44.788;2023-05-16T10:37:05;991.5;;;24;42.9
76046;BME280;64741;41.730;44.788;2023-05-16T10:42:05;991.5;;;24;42.4
76046;BME280;64741;41.730;44.788;2023-05-16T10:47:02;991.5;;;24;42.2
76046;BME280;64741;41.730;44.788;2023-05-16T10:52:02;991.5;;;24;42
76046;BME280;64741;41.730;44.788;2023-05-16T10:57:06;991.3;;;24;41.8
76046;BME280;64741;41.730;44.788;2023-05-16T11:02:01;991.3;;;24;41.6
76046;BME280;64741;41.730;44.788;2023-05-16T11:07:09;991.2;;;24;41.5
76046;BME280;64741;41.730;44.788;2023-05-16T11:12:04;991.2;;;24;41.3
76046;BME280;64741;41.730;44.788;2023-05-16T11:17:10;991.1;;;24;41.1
76046;BME280;64741;41.730;44.788;2023-05-16T11:22:05;991.2;;;24;41
76046;BME280;64741;41.730;44.788;2023-05-16T11:27:09;991.1;;;24;40.9
76046;BME280;64741;41.730;44.788;2023-05-16T11:32:07;991.1;;;24;40.8
76046;BME280;64741;41.730;44.788;2023-05-16T11:37:03;991.1;;;24;40.8
76046;BME280;64741;41.730;44.788;2023-05-16T11:42:07;991;;;24;40.8
76046;BME280;64741;41.730;44.788;2023-05-16T11:47:05;991;;;24;40.7
76046;BME280;64741;41.730;44.788;2023-05-16T11:52:06;990.9;;;24;40.5
76046;BME280;64741;41.730;44.788;2023-05-16T11:57:04;990.8;;;24;40.3
76046;BME280;64741;41.730;44.788;2023-05-16T12:02:03;990.7;;;24;40.3
76046;BME280;64741;41.730;44.788;2023-05-16T12:07:09;990.7;;;24;40.1
76046;BME280;64741;41.730;44.788;2023-05-16T12:12:09;990.7;;;24;39.9
76046;BME280;64741;41.730;44.788;2023-05-16T12:16:59;990.7;;;24;39.8
76046;BME280;64741;41.730;44.788;2023-05-16T12:22:01;990.6;;;24;39.7
76046;BME280;64741;41.730;44.788;2023-05-16T12:27:06;990.5;;;24;39.5
76046;BME280;64741;41.730;44.788;2023-05-16T12:32:06;990.5;;;24;39.6
76046;BME280;64741;41.730;44.788;2023-05-16T12:37:03;990.5;;;24;39.5
76046;BME280;64741;41.730;44.788;2023-05-16T12:42:03;990.5;;;24;39.5
76046;BME280;64741;41.730;44.788;2023-05-16T12:47:10;990.5;;;24;39.5
76046;BME280;64741;41.730;44.788;2023-05-16T12:51:57;990.5;;;24;39.4
76046;BME280;64741;41.730;44.788;2023-05-16T12:57:02;990.5;;;24;39.3
76046;BME280;64741;41.730;44.788;2023-05-16T13:02:10;990.5;;;24;39.3
76046;BME280;64741;41.730;44.788;2023-05-16T13:07:05;990.5;;;24;39.3
76046;BME280;64741;41.730;44.788;2023-05-16T13:11:49;990.4;;;24;39.3
76046;BME280;64741;41.730;44.788;2023-05-16T13:17:02;990.5;;;24;39.3
76046;BME280;64741;41.730;44.788;2023-05-16T13:22:03;990.5;;;24;39.3
76046;BME280;64741;41.730;44.788;2023-05-16T13:27:01;990.5;;;24;39.5
76046;BME280;64741;41.730;44.788;2023-05-16T13:32:01;990.4;;;24;39.9
76046;BME280;64741;41.730;44.788;2023-05-16T13:37:09;990.5;;;24;40.2
76046;BME280;64741;41.730;44.788;2023-05-16T13:41:31;990.4;;;24;40.3
76046;BME280;64741;41.730;44.788;2023-05-16T13:47:05;990.4;;;24;40.1
76046;BME280;64741;41.730;44.788;2023-05-16T13:52:02;990.4;;;24;40.1
76046;BME280;64741;41.730;44.788;2023-05-16T13:57:02;990.4;;;24;40.1
76046;BME280;64741;41.730;44.788;2023-05-16T14:02:05;990.4;;;24;40
76046;BME280;64741;41.730;44.788;2023-05-16T14:07:02;990.4;;;24;39.9
76046;BME280;64741;41.730;44.788;2023-05-16T14:12:10;990.4;;;24;39.8
76046;BME280;64741;41.730;44.788;2023-05-16T14:16:49;990.4;;;24;39.6
76046;BME280;64741;41.730;44.788;2023-05-16T14:21:57;990.4;;;24.1;39.6
76046;BME280;64741;41.730;44.788;2023-05-16T14:27:02;990.4;;;24.1;39.9
76046;BME280;64741;41.730;44.788;2023-05-16T14:32:10;990.4;;;24.1;40.3
76046;BME280;64741;41.730;44.788;2023-05-16T14:37:03;990.4;;;24.1;40.5
76046;BME280;64741;41.730;44.788;2023-05-16T14:42:02;990.3;;;24.1;40.4
76046;BME280;64741;41.730;44.788;2023-05-16T14:47:06;990.4;;;24.1;40.5
76046;BME280;64741;41.730;44.788;2023-05-16T14:52:02;990.4;;;24.1;40.4
76046;BME280;64741;41.730;44.788;2023-05-16T14:57:04;990.4;;;24.1;40.3
76046;BME280;64741;41.730;44.788;2023-05-16T15:02:04;990.4;;;24;40.2
76046;BME280;64741;41.730;44.788;2023-05-16T15:07:06;990.4;;;24;40.2
76046;BME280;64741;41.730;44.788;2023-05-16T15:12:08;990.4;;;24;40.3
76046;BME280;64741;41.730;44.788;2023-05-16T15:16:58;990.5;;;24;40.4
76046;BME280;64741;41.730;44.788;2023-05-16T15:22:08;990.5;;;24;39.8
76046;BME280;64741;41.730;44.788;2023-05-16T15:26:20;990.5;;;24;39.5
76046;BME280;64741;41.730;44.788;2023-05-16T15:32:06;990.6;;;23.9;39.3
76046;BME280;64741;41.730;44.788;2023-05-16T15:37:06;990.6;;;24;39.3
76046;BME280;64741;41.730;44.788;2023-05-16T15:41:52;990.7;;;23.9;38.9
76046;BME280;64741;41.730;44.788;2023-05-16T15:47:02;990.8;;;23.9;38.8
76046;BME280;64741;41.730;44.788;2023-05-16T15:52:06;990.8;;;23.9;38.8
76046;BME280;64741;41.730;44.788;2023-05-16T15:57:10;990.8;;;23.9;38.9
76046;BME280;64741;41.730;44.788;2023-05-16T16:02:00;990.8;;;23.9;39.2
76046;BME280;64741;41.730;44.788;2023-05-16T16:07:10;990.8;;;23.9;39.3
76046;BME280;64741;41.730;44.788;2023-05-16T16:12:04;990.8;;;23.9;39.3
76046;BME280;64741;41.730;44.788;2023-05-16T16:17:06;990.8;;;23.9;39.4
76046;BME280;64741;41.730;44.788;2023-05-16T16:22:02;990.8;;;23.9;39.5
76046;BME280;64741;41.730;44.788;2023-05-16T16:27:04;990.8;;;23.9;39.6
76046;BME280;64741;41.730;44.788;2023-05-16T16:31:58;990.9;;;23.9;39.7
76046;BME280;64741;41.730;44.788;2023-05-16T16:37:00;990.9;;;23.9;39.8
76046;BME280;64741;41.730;44.788;2023-05-16T16:42:08;990.9;;;23.9;39.8
76046;BME280;64741;41.730;44.788;2023-05-16T16:47:02;990.9;;;23.9;39.9
76046;BME280;64741;41.730;44.788;2023-05-16T16:52:08;991;;;23.9;40
76046;BME280;64741;41.730;44.788;2023-05-16T16:57:04;991;;;23.9;40.1
76046;BME280;64741;41.730;44.788;2023-05-16T17:02:04;991.1;;;23.9;40.2
76046;BME280;64741;41.730;44.788;2023-05-16T17:07:04;991.1;;;23.9;40.3
76046;BME280;64741;41.730;44.788;2023-05-16T17:12:02;991.1;;;23.9;40.3
76046;BME280;64741;41.730;44.788;2023-05-16T17:17:06;991.1;;;23.9;40.4
76046;BME280;64741;41.730;44.788;2023-05-16T17:22:04;991.2;;;23.9;40.4
76046;BME280;64741;41.730;44.788;2023-05-16T17:27:10;991.2;;;23.9;40.5
76046;BME280;64741;41.730;44.788;2023-05-16T17:32:04;991.3;;;23.9;40.5
76046;BME280;64741;41.730;44.788;2023-05-16T17:37:04;991.3;;;23.9;40.4
76046;BME280;64741;41.730;44.788;2023-05-16T17:42:10;991.3;;;23.9;40.4
76046;BME280;64741;41.730;44.788;2023-05-16T17:47:10;991.4;;;23.9;40.5
76046;BME280;64741;41.730;44.788;2023-05-16T17:52:06;991.4;;;23.9;40.5
76046;BME280;64741;41.730;44.788;2023-05-16T17:56:52;991.4;;;23.9;40.6
76046;BME280;64741;41.730;44.788;2023-05-16T18:02:05;991.4;;;23.8;40.7
76046;BME280;64741;41.730;44.788;2023-05-16T18:07:02;991.4;;;23.8;40.8
76046;BME280;64741;41.730;44.788;2023-05-16T18:12:04;991.5;;;23.8;40.8
76046;BME280;64741;41.730;44.788;2023-05-16T18:17:10;991.5;;;23.9;41.1
76046;BME280;64741;41.730;44.788;2023-05-16T18:22:10;991.5;;;23.9;41.3
76046;BME280;64741;41.730;44.788;2023-05-16T18:27:06;991.5;;;23.9;41.5
76046;BME280;64741;41.730;44.788;2023-05-16T18:32:06;991.5;;;23.9;41.4
76046;BME280;64741;41.730;44.788;2023-05-16T18:37:07;991.6;;;23.9;41.4
76046;BME280;64741;41.730;44.788;2023-05-16T18:42:06;991.6;;;23.9;41.4
76046;BME280;64741;41.730;44.788;2023-05-16T18:47:04;991.6;;;23.9;41.4
76046;BME280;64741;41.730;44.788;2023-05-16T18:52:04;991.6;;;23.9;41.3
76046;BME280;64741;41.730;44.788;2023-05-16T18:57:08;991.6;;;23.9;41.3
76046;BME280;64741;41.730;44.788;2023-05-16T19:02:10;991.6;;;23.9;41.3
76046;BME280;64741;41.730;44.788;2023-05-16T19:07:02;991.6;;;23.9;41.3
76046;BME280;64741;41.730;44.788;2023-05-16T19:12:10;991.6;;;23.9;41.2
76046;BME280;64741;41.730;44.788;2023-05-16T19:17:06;991.5;;;23.8;41.2
76046;BME280;64741;41.730;44.788;2023-05-16T19:22:05;991.6;;;23.8;41.2
76046;BME280;64741;41.730;44.788;2023-05-16T19:27:02;991.6;;;23.8;41.2
76046;BME280;64741;41.730;44.788;2023-05-16T19:32:01;991.5;;;23.9;41.2
76046;BME280;64741;41.730;44.788;2023-05-16T19:37:01;991.4;;;23.9;41.1
76046;BME280;64741;41.730;44.788;2023-05-16T19:42:00;991.3;;;23.9;41.1
76046;BME280;64741;41.730;44.788;2023-05-16T19:46:56;991.4;;;23.9;41
76046;BME280;64741;41.730;44.788;2023-05-16T19:52:04;991.3;;;23.9;41.1
76046;BME280;64741;41.730;44.788;2023-05-16T19:57:06;991.3;;;23.8;41.1
76046;BME280;64741;41.730;44.788;2023-05-16T20:01:54;991.3;;;23.8;41.1
76046;BME280;64741;41.730;44.788;2023-05-16T20:07:04;991.3;;;23.8;41.2
76046;BME280;64741;41.730;44.788;2023-05-16T20:12:06;991.2;;;23.8;41.1
76046;BME280;64741;41.730;44.788;2023-05-16T20:16:50;991.2;;;23.8;41
76046;BME280;64741;41.730;44.788;2023-05-16T20:21:50;991.1;;;23.8;41
76046;BME280;64741;41.730;44.788;2023-05-16T20:27:04;991.1;;;23.8;41
76046;BME280;64741;41.730;44.788;2023-05-16T20:32:10;991;;;23.8;41
76046;BME280;64741;41.730;44.788;2023-05-16T20:37:04;991;;;23.8;40.9
76046;BME280;64741;41.730;44.788;2023-05-16T20:42:04;990.9;;;23.8;40.9
76046;BME280;64741;41.730;44.788;2023-05-16T20:47:10;990.9;;;23.8;40.9
76046;BME280;64741;41.730;44.788;2023-05-16T20:52:10;990.9;;;23.7;41
76046;BME280;64741;41.730;44.788;2023-05-16T20:57:08;990.9;;;23.7;41.3
76046;BME280;64741;41.730;44.788;2023-05-16T21:02:02;990.9;;;23.7;41.4
76046;BME280;64741;41.730;44.788;2023-05-16T21:07:12;990.8;;;23.7;41.3
76046;BME280;64741;41.730;44.788;2023-05-16T21:12:04;990.7;;;23.7;41.3
76046;BME280;64741;41.730;44.788;2023-05-16T21:16:48;990.6;;;23.7;41.3
76046;BME280;64741;41.730;44.788;2023-05-16T21:22:02;990.6;;;23.8;41.2
76046;BME280;64741;41.730;44.788;2023-05-16T21:27:10;990.6;;;23.8;41.3
76046;BME280;64741;41.730;44.788;2023-05-16T21:32:06;990.5;;;23.8;41.3
76046;BME280;64741;41.730;44.788;2023-05-16T21:37:04;990.4;;;23.7;41.2
76046;BME280;64741;41.730;44.788;2023-05-16T21:42:10;990.4;;;23.7;41.1
76046;BME280;64741;41.730;44.788;2023-05-16T21:47:06;990.4;;;23.7;41.1
76046;BME280;64741;41.730;44.788;2023-05-16T21:52:06;990.4;;;23.7;41.2
76046;BME280;64741;41.730;44.788;2023-05-16T21:57:03;990.4;;;23.7;41.3
76046;BME280;64741;41.730;44.788;2023-05-16T22:02:02;990.3;;;23.7;41.4
76046;BME280;64741;41.730;44.788;2023-05-16T22:07:06;990.3;;;23.7;41.5
76046;BME280;64741;41.730;44.788;2023-05-16T22:12:02;990.3;;;23.7;41.9
76046;BME280;64741;41.730;44.788;2023-05-16T22:17:10;990.3;;;23.7;42.3
76046;BME280;64741;41.730;44.788;2023-05-16T22:22:06;990.3;;;23.7;42.5
76046;BME280;64741;41.730;44.788;2023-05-16T22:27:06;990.2;;;23.7;42.5
76046;BME280;64741;41.730;44.788;2023-05-16T22:32:00;990.2;;;23.7;42.5
76046;BME280;64741;41.730;44.788;2023-05-16T22:37:04;990.1;;;23.7;42.5
76046;BME280;64741;41.730;44.788;2023-05-16T22:42:02;990.1;;;23.7;42.4
76046;BME280;64741;41.730;44.788;2023-05-16T22:47:02;990.1;;;23.7;42.4
76046;BME280;64741;41.730;44.788;2023-05-16T22:52:06;990;;;23.7;42.3
76046;BME280;64741;41.730;44.788;2023-05-16T22:56:52;990;;;23.7;42.3
76046;BME280;64741;41.730;44.788;2023-05-16T23:01:58;990.1;;;23.7;42.2
76046;BME280;64741;41.730;44.788;2023-05-16T23:07:06;990;;;23.7;42.1
76046;BME280;64741;41.730;44.788;2023-05-16T23:12:04;990;;;23.7;42.1
76046;BME280;64741;41.730;44.788;2023-05-16T23:17:06;990;;;23.7;42
76046;BME280;64741;41.730;44.788;2023-05-16T23:22:02;990;;;23.7;42
76046;BME280;64741;41.730;44.788;2023-05-16T23:27:06;989.9;;;23.7;41.9
76046;BME280;64741;41.730;44.788;2023-05-16T23:32:04;989.9;;;23.7;41.9
76046;BME280;64741;41.730;44.788;2023-05-16T23:37:10;989.9;;;23.7;41.8
76046;BME280;64741;41.730;44.788;2023-05-16T23:42:04;989.9;;;23.7;41.8
76046;BME280;64741;41.730;44.788;2023-05-16T23:47:04;989.9;;;23.8;41.7
76046;BME280;64741;41.730;44.788;2023-05-16T23:52:10;990;;;23.8;41.7
76046;BME280;64741;41.730;44.788;2023-05-16T23:57:10;990;;;23.8;41.6
